map of CYB home
CYB - Airport
Location
City:  Cayman Brac Island, Cayman Islands
Name:Gerrard-Smith International Airport
ICAO:MWCB
IATA:CYB

Details
Type:Airport (Aerodrome, Airfield)
Use:International (customs port of entry)
Latitude:1941'13"N (19.686981)
Longitude:7952'58"W (-79.882788)
Datum:WGS 1984
Elevation:8 ft (2 m)
Variation:6.05W (WMM2015 magnetic declination)
-0.12 annual change
Runways:1
Longest:6000 × 148 ft (1829 × 45 m), paved

Time
Time Zone:UTC-5
Local Time:

Weather
METAR:MWCB 160000Z 11010KT 9999 FEW018 28/25 Q1013
TAF:MWCB 152300Z 1518/1618 CNL

Related Locations
Nearby:
Farthest:CCK: 11873 mi / 19107 km
West Island (Pulau Panjang) [Cocos (Keeling) Islands], CC

Find:

   beyond  
but within

Other Information
Maps:
NOTAMs:
Links:
Sources:

  
  • flag of Cayman Islands
  

Sectional Chart

Flight Planning
at skyvector.com

Satellite Image

Google Maps Satellite view

 

Copyright © 2004-2018 Karl L. Swartz. All rights reserved.
The Great Circle Mapper name and logo are trademarks of the Great Circle Mapper.
All other trademarks mentioned herein belong to their respective owners.
Please see credits for attibutions and further copyright information.

  Follow gcmap on Facebook Follow gcmap on Twitter Follow gcmap on Google+ GCmap on LinkedIn

hCard Microformat

Geo Microformat